Terminal Aerodrome Forecast
Issued by NWS

Home | Current Version | Previous Version | Text Only | Print | Product List | Glossary On
Versions: 1 2 3 4 5 6 7 8 9 10 11 12
000
FTUS45 KGJT 191728
TAFRIL
TAF
KRIL 191728Z 1918/2018 26005KT P6SM BKN200
     FM200900 17004KT P6SM VCSH BKN100
     FM201200 13004KT P6SM BKN070 BKN090=

USA.gov is the U.S. government's official web portal to all federal, state and local government web resources and services.